Walney Island, United Kingdom
Current Conditions -  °F | °C
As of 3:50 PM on Monday 24 Nov 2014 (Local Time) from EGNS Reporting Station
Scattered Clouds Scattered Clouds  
Wind Chill: 45°   Ceiling: Unl
Heat Index: 48°   Visibility: 6mi
Dew Point: 39°   Wind: 8mph
Humidity: 71%   Direction: 240°WSW
Pressure: 30.27"   Gusts: NA
Location:  54.12°N, 3.25°W
Report Text: EGNS 241550Z 24007KT 210V270 9999 SCT028 09/04 Q1025 NOSIG
Loading
Personal Weather Stations






























Interactive Weather Map New forecast layout! Learn more

10-Day Weather Forecast

Advertisements
Track Severe Weather on mobile